Time;durP1;ratioP1;P1;durP2;ratioP2;P2;SDS_P1;SDS_P2;PMS_P1;PMS_P2;Temp;Humidity;BMP_temperature;BMP_pressure;BME280_temperature;BME280_humidity;BME280_pressure;Samples;Min_cycle;Max_cycle;Signal;HPM_P1;HPM_P2
2022/12/21 00:01:21;;;;;;;2.55;2.05;;;;;;;-1.15;100.00;100573.25;6246650;22;20008;-91
2022/12/21 00:03:54;;;;;;;0.90;0.88;;;;;;;-1.13;100.00;100573.69;6220628;22;20103;-91
2022/12/21 00:06:21;;;;;;;5.70;3.20;;;;;;;-1.13;100.00;100581.06;6221792;22;20016;-90
2022/12/21 00:08:48;;;;;;;3.22;2.55;;;;;;;-1.12;100.00;100572.53;6224543;22;20030;-94
2022/12/21 00:11:14;;;;;;;1.77;1.67;;;;;;;-1.30;100.00;100533.16;6221473;22;20271;-91
2022/12/21 00:13:41;;;;;;;6.35;3.60;;;;;;;-1.32;100.00;100538.13;6215255;23;20008;-91
2022/12/21 00:16:12;;;;;;;9.27;3.97;;;;;;;-1.35;100.00;100516.25;6216778;23;20472;-90
2022/12/21 00:18:39;;;;;;;1.65;1.55;;;;;;;-1.19;100.00;100563.38;6241130;23;20023;-91
2022/12/21 00:21:07;;;;;;;6.45;4.03;;;;;;;-1.22;100.00;100547.75;6191201;23;20050;-91
2022/12/21 00:23:33;;;;;;;7.35;4.30;;;;;;;-1.15;100.00;100556.91;6215550;23;20066;-90
2022/12/21 00:26:01;;;;;;;3.50;3.25;;;;;;;-1.31;100.00;100520.69;6241047;23;20020;-90
2022/12/21 00:28:27;;;;;;;15.15;4.18;;;;;;;-1.06;100.00;100540.44;6243216;23;20004;-95
2022/12/21 00:30:53;;;;;;;20.30;5.40;;;;;;;-1.26;100.00;100509.56;6196067;23;20020;-94
2022/12/21 00:33:19;;;;;;;3.95;3.22;;;;;;;-1.19;100.00;100528.78;6196131;23;20008;-94
2022/12/21 00:35:49;;;;;;;1.45;1.35;;;;;;;-1.13;100.00;100532.06;6195848;23;20019;-95
2022/12/21 00:38:15;;;;;;;1.45;1.38;;;;;;;-1.30;100.00;100505.16;6197086;23;20019;-93
2022/12/21 00:40:42;;;;;;;10.30;2.55;;;;;;;-1.40;100.00;100484.66;6196080;23;20004;-94
2022/12/21 00:43:07;;;;;;;4.60;3.55;;;;;;;-1.26;100.00;100509.56;6196852;23;20054;-95
2022/12/21 00:45:33;;;;;;;3.55;2.65;;;;;;;-1.32;100.00;100497.31;6221597;23;20012;-94
2022/12/21 00:48:09;;;;;;;8.30;3.50;;;;;;;-1.16;100.00;100519.94;6194861;23;20441;-91
2022/12/21 00:50:35;;;;;;;2.70;2.50;;;;;;;-1.17;100.00;100515.63;6189531;23;20026;-90
2022/12/21 00:53:01;;;;;;;8.95;4.38;;;;;;;-1.36;100.00;100490.97;6242778;23;20325;-90
2022/12/21 00:55:26;;;;;;;4.65;3.13;;;;;;;-1.18;100.00;100518.72;6242949;23;20019;-91
2022/12/21 00:57:52;;;;;;;3.05;1.92;;;;;;;-1.16;100.00;100522.66;6242882;23;20004;-90
2022/12/21 01:00:18;;;;;;;2.60;2.50;;;;;;;-1.14;100.00;100506.78;6242886;23;20385;-91
2022/12/21 01:02:43;;;;;;;6.75;5.60;;;;;;;-1.25;100.00;100496.75;6243861;22;20012;-91
2022/12/21 01:05:09;;;;;;;1.52;1.42;;;;;;;-1.26;100.00;100490.50;6246314;22;20032;-95
2022/12/21 01:07:35;;;;;;;4.43;4.00;;;;;;;-1.36;100.00;100480.09;6194027;23;20099;-90
2022/12/21 01:10:00;;;;;;;2.13;2.03;;;;;;;-1.09;100.00;100511.19;6217592;23;20337;-90
2022/12/21 01:12:26;;;;;;;4.82;3.45;;;;;;;-1.31;100.00;100482.56;6242703;23;20008;-90
2022/12/21 01:14:51;;;;;;;3.80;3.45;;;;;;;-1.17;100.00;100493.06;6242330;23;20016;-90
2022/12/21 01:17:18;;;;;;;9.18;3.00;;;;;;;-1.22;100.00;100496.03;6243024;23;20444;-90
2022/12/21 01:19:44;;;;;;;5.55;5.13;;;;;;;-1.29;100.00;100483.00;6242314;23;20085;-90
2022/12/21 01:22:09;;;;;;;3.67;3.33;;;;;;;-1.08;100.00;100504.59;6217587;23;20083;-90
2022/12/21 01:24:35;;;;;;;2.95;2.75;;;;;;;-1.18;100.00;100486.03;6241625;23;20012;-90
2022/12/21 01:27:00;;;;;;;4.32;3.97;;;;;;;-1.16;100.00;100489.19;6244665;23;20027;-93
2022/12/21 01:29:26;;;;;;;2.42;2.28;;;;;;;-1.07;100.00;100493.34;6194899;23;20468;-94
2022/12/21 01:31:52;;;;;;;4.57;4.15;;;;;;;-1.06;100.00;100488.72;6195265;23;20054;-93
2022/12/21 01:34:17;;;;;;;2.53;2.35;;;;;;;-1.10;100.00;100477.72;6195344;23;20012;-94
2022/12/21 01:36:47;;;;;;;2.05;1.95;;;;;;;-1.10;100.00;100477.72;6245699;23;20000;-95
2022/12/21 01:39:13;;;;;;;5.25;3.90;;;;;;;-1.21;100.00;100456.81;6194670;23;20012;-94
2022/12/21 01:41:39;;;;;;;4.40;3.58;;;;;;;-1.21;100.00;100454.84;6196131;23;20035;-95
2022/12/21 01:44:42;;;;;;;8.32;4.40;;;;;;;-1.07;100.00;100468.84;6189506;23;20012;-91
2022/12/21 01:47:12;;;;;;;2.55;2.08;;;;;;;-1.15;100.00;100456.19;6239442;23;20117;-91
2022/12/21 01:49:38;;;;;;;7.65;2.88;;;;;;;-1.31;100.00;100424.63;6215882;23;20020;-91
2022/12/21 01:52:08;;;;;;;5.85;3.58;;;;;;;-1.16;100.00;100446.44;6240529;23;20070;-90
2022/12/21 01:54:38;;;;;;;7.68;3.08;;;;;;;-1.22;100.00;100433.44;6241447;23;20054;-90
2022/12/21 01:57:07;;;;;;;4.13;2.22;;;;;;;-1.31;100.00;100421.91;6214651;23;20040;-89
2022/12/21 01:59:35;;;;;;;5.32;4.82;;;;;;;-1.08;100.00;100453.66;6215306;23;20008;-90
2022/12/21 02:02:05;;;;;;;4.88;4.60;;;;;;;-1.19;100.00;100435.44;6192333;23;20020;-95
2022/12/21 02:04:31;;;;;;;2.85;2.65;;;;;;;-1.33;100.00;100403.19;6195083;23;20023;-96
2022/12/21 02:06:58;;;;;;;6.38;5.57;;;;;;;-1.06;100.00;100451.38;6195033;23;20008;-95
2022/12/21 02:09:31;;;;;;;3.88;1.98;;;;;;;-1.20;100.00;100422.97;6197121;23;20095;-95
2022/12/21 02:11:59;;;;;;;1.83;1.73;;;;;;;-1.11;100.00;100437.22;6195070;23;20009;-95
2022/12/21 02:14:26;;;;;;;2.42;2.33;;;;;;;-1.26;100.00;100417.00;6195293;23;20020;-94
2022/12/21 02:17:10;;;;;;;5.30;4.78;;;;;;;-1.15;100.00;100426.25;6169794;23;20324;-95
2022/12/21 02:20:03;;;;;;;1.08;1.08;;;;;;;-0.98;100.00;100441.47;6220302;23;20177;-94
2022/12/21 02:22:28;;;;;;;3.03;2.80;;;;;;;-0.98;100.00;100444.19;6215412;23;20019;-89
2022/12/21 02:25:08;;;;;;;7.05;6.45;;;;;;;-1.03;100.00;100433.53;6242183;23;20103;-91
2022/12/21 02:28:08;;;;;;;0.93;0.93;;;;;;;-0.97;100.00;100422.03;6214626;23;20012;-90
2022/12/21 02:30:55;;;;;;;2.40;2.30;;;;;;;-0.97;100.00;100443.81;6215792;23;20023;-92
2022/12/21 02:33:30;;;;;;;5.57;3.90;;;;;;;-1.08;100.00;100429.16;6240180;23;20012;-90
2022/12/21 02:36:24;;;;;;;0.98;0.98;;;;;;;-0.98;100.00;100436.81;6189920;23;20012;-90
2022/12/21 02:39:02;;;;;;;15.18;4.28;;;;;;;-1.08;100.00;100426.44;6214905;23;20330;-90
2022/12/21 02:41:38;;;;;;;3.63;2.00;;;;;;;-1.10;100.00;100409.66;6216869;22;20019;-90
2022/12/21 02:44:24;;;;;;;3.92;3.25;;;;;;;-1.00;100.00;100411.84;6215618;23;20389;-91
2022/12/21 02:46:49;;;;;;;3.00;2.80;;;;;;;-0.88;100.00;100435.50;6216474;23;20027;-90
2022/12/21 02:49:29;;;;;;;3.88;3.50;;;;;;;-0.91;100.00;100427.22;6216756;23;20001;-91
2022/12/21 02:52:24;;;;;;;2.25;2.15;;;;;;;-0.92;100.00;100429.16;6191340;23;20011;-91
2022/12/21 02:54:55;;;;;;;5.82;3.65;;;;;;;-1.14;100.00;100395.16;6243070;23;20047;-91
2022/12/21 02:57:33;;;;;;;5.05;4.55;;;;;;;-0.93;100.00;100415.91;6216872;23;20477;-91
2022/12/21 03:00:00;;;;;;;9.82;2.75;;;;;;;-1.07;100.00;100387.19;6219208;23;20031;-95
2022/12/21 03:06:10;;;;;;;3.30;2.58;;;;;;;-1.05;100.00;100387.59;6216904;23;20085;-90
2022/12/21 03:08:55;;;;;;;3.53;3.33;;;;;;;-1.15;100.00;100376.44;6242168;23;20096;-90
2022/12/21 03:11:30;;;;;;;6.32;5.72;;;;;;;-1.04;100.00;100397.34;6216040;23;20438;-90
2022/12/21 03:14:11;;;;;;;5.38;4.15;;;;;;;-0.98;100.00;100406.88;6225764;22;20015;-91
2022/12/21 03:16:47;;;;;;;11.60;6.72;;;;;;;-1.04;100.00;100405.53;6246739;22;20042;-90
2022/12/21 03:19:33;;;;;;;1.25;1.25;;;;;;;-1.01;100.00;100399.38;6247165;22;20034;-92
2022/12/21 03:22:12;;;;;;;3.97;3.67;;;;;;;-1.01;100.00;100404.81;6200150;22;20458;-94
2022/12/21 03:24:41;;;;;;;7.25;5.70;;;;;;;-0.86;100.00;100421.53;6199719;22;20038;-94
2022/12/21 03:27:11;;;;;;;0.50;0.50;;;;;;;-0.83;100.00;100415.38;6224473;22;20003;-94
2022/12/21 03:29:42;;;;;;;2.33;2.17;;;;;;;-0.98;100.00;100392.44;6199919;22;20016;-94
2022/12/21 03:32:18;;;;;;;2.13;2.00;;;;;;;-0.91;100.00;100402.72;6199583;22;20012;-95
2022/12/21 03:34:47;;;;;;;4.40;3.28;;;;;;;-0.85;100.00;100402.13;6199694;22;20015;-94
2022/12/21 03:37:22;;;;;;;2.25;2.05;;;;;;;-1.06;100.00;100377.88;6199121;22;20063;-91
2022/12/21 03:39:52;;;;;;;3.92;3.63;;;;;;;-1.00;100.00;100381.09;6245750;22;20016;-91
2022/12/21 03:42:27;;;;;;;5.47;4.93;;;;;;;-1.06;100.00;100368.91;6244773;22;20019;-91
2022/12/21 03:45:00;;;;;;;7.88;4.50;;;;;;;-0.93;100.00;100384.78;6273232;22;20388;-90
2022/12/21 03:47:29;;;;;;;2.65;2.42;;;;;;;-0.97;100.00;100378.47;6246644;22;20087;-91
2022/12/21 03:50:01;;;;;;;2.00;1.90;;;;;;;-0.93;100.00;100394.13;6220757;22;20145;-91
2022/12/21 03:52:41;;;;;;;3.40;2.95;;;;;;;-0.91;100.00;100389.91;6221699;22;20016;-91
2022/12/21 03:55:12;;;;;;;2.50;2.30;;;;;;;-0.93;100.00;100384.78;6273110;22;20015;-90
2022/12/21 03:57:38;;;;;;;2.22;2.13;;;;;;;-0.87;100.00;100400.88;6221131;22;20036;-92
2022/12/21 04:00:08;;;;;;;2.40;2.30;;;;;;;-0.81;100.00;100402.22;6199705;22;20011;-95
2022/12/21 04:02:54;;;;;;;12.20;4.65;;;;;;;-0.81;100.00;100388.59;6226329;22;20067;-95
2022/12/21 04:05:44;;;;;;;5.28;4.18;;;;;;;-0.82;100.00;100395.19;6202162;22;20015;-95
2022/12/21 04:08:10;;;;;;;2.70;2.55;;;;;;;-0.89;100.00;100376.75;6202346;22;20045;-95
2022/12/21 04:10:36;;;;;;;2.28;2.17;;;;;;;-1.00;100.00;100349.22;6202631;22;20421;-95
2022/12/21 04:13:01;;;;;;;5.20;3.95;;;;;;;-0.99;100.00;100347.31;6202190;22;20012;-95
2022/12/21 04:18:12;;;;;;;5.95;3.20;;;;;;;-0.78;100.00;100368.81;6246265;23;20083;-95
2022/12/21 04:20:38;;;;;;;7.43;5.25;;;;;;;-0.98;100.00;100338.78;6196876;23;20536;-95
2022/12/21 04:28:32;;;;;;;2.20;2.05;;;;;;;-0.89;100.00;100338.63;6226011;23;20068;-96
2022/12/21 04:30:59;;;;;;;3.90;2.42;;;;;;;-0.93;100.00;100326.06;6222537;23;20106;-94
2022/12/21 04:33:27;;;;;;;3.53;3.30;;;;;;;-0.71;100.00;100369.78;6196674;23;20004;-95
2022/12/21 04:38:42;;;;;;;2.15;2.05;;;;;;;-0.83;100.00;100339.91;6226139;23;20019;-95
2022/12/21 04:41:09;;;;;;;4.40;2.90;;;;;;;-0.79;100.00;100342.72;6196769;23;20446;-95
2022/12/21 04:43:36;;;;;;;2.28;2.08;;;;;;;-0.87;100.00;100338.25;6196941;23;20000;-95
2022/12/21 04:46:03;;;;;;;1.98;1.88;;;;;;;-0.84;100.00;100332.88;6197032;23;20438;-94
2022/12/21 04:48:29;;;;;;;6.93;6.28;;;;;;;-0.82;100.00;100337.97;6196506;23;20107;-94
2022/12/21 04:50:55;;;;;;;2.55;1.88;;;;;;;-0.85;100.00;100338.69;6196959;23;20000;-95
2022/12/21 04:53:21;;;;;;;5.38;4.97;;;;;;;-0.66;100.00;100366.78;6194351;23;20016;-90
2022/12/21 04:55:47;;;;;;;2.08;1.98;;;;;;;-0.69;100.00;100347.63;6242532;23;20015;-91
2022/12/21 04:58:13;;;;;;;7.70;4.25;;;;;;;-0.83;100.00;100334.47;6242314;23;20004;-90
2022/12/21 05:00:38;;;;;;;6.60;4.07;;;;;;;-0.63;100.00;100359.81;6242294;23;20059;-89
2022/12/21 05:03:04;;;;;;;4.18;3.75;;;;;;;-0.76;100.00;100344.72;6244202;22;20066;-91
2022/12/21 05:05:30;;;;;;;2.40;2.20;;;;;;;-0.75;100.00;100351.75;6242448;23;20458;-91
2022/12/21 05:07:56;;;;;;;4.15;3.78;;;;;;;-0.57;100.00;100363.88;6242649;23;20071;-90
2022/12/21 05:10:22;;;;;;;5.53;5.03;;;;;;;-0.66;100.00;100353.16;6243540;22;20092;-90
2022/12/21 05:12:48;;;;;;;5.43;4.93;;;;;;;-0.59;100.00;100360.69;6194402;23;20012;-95
2022/12/21 05:15:13;;;;;;;3.28;3.08;;;;;;;-0.72;100.00;100338.22;6201267;22;20022;-94
2022/12/21 05:17:40;;;;;;;2.40;2.25;;;;;;;-0.80;100.00;100327.50;6201938;22;20457;-95
2022/12/21 05:20:06;;;;;;;8.13;7.47;;;;;;;-0.79;100.00;100318.19;6226890;22;20018;-95
2022/12/21 05:22:32;;;;;;;3.35;3.08;;;;;;;-0.72;100.00;100331.97;6201723;22;20020;-95
2022/12/21 05:24:58;;;;;;;1.85;1.55;;;;;;;-0.84;100.00;100316.53;6202798;22;20014;-95
2022/12/21 05:27:24;;;;;;;5.03;2.70;;;;;;;-0.84;100.00;100315.75;6205199;22;20073;-95
2022/12/21 05:29:50;;;;;;;6.18;4.70;;;;;;;-0.66;100.00;100349.66;6228949;22;20090;-95
2022/12/21 05:32:16;;;;;;;3.17;2.88;;;;;;;-0.78;100.00;100323.31;6227466;22;20109;-95
2022/12/21 05:34:42;;;;;;;1.33;1.23;;;;;;;-0.76;100.00;100325.66;6203413;22;20011;-95
2022/12/21 05:37:08;;;;;;;1.60;1.50;;;;;;;-0.79;100.00;100329.09;6202933;22;20012;-96
2022/12/21 05:39:34;;;;;;;12.60;4.68;;;;;;;-0.76;100.00;100322.94;6202635;22;20083;-96
2022/12/21 05:42:01;;;;;;;3.30;3.00;;;;;;;-0.71;100.00;100331.63;6201128;22;20043;-95
2022/12/21 05:44:27;;;;;;;1.50;1.42;;;;;;;-0.83;100.00;100311.88;6200687;22;20000;-94
2022/12/21 05:46:53;;;;;;;4.30;4.00;;;;;;;-0.61;100.00;100339.28;6224749;22;20016;-95
2022/12/21 05:49:19;;;;;;;1.70;1.60;;;;;;;-0.59;100.00;100344.34;6200201;22;20422;-95
2022/12/21 05:51:48;;;;;;;3.58;3.28;;;;;;;-0.62;100.00;100324.06;6198943;22;20011;-95
2022/12/21 05:54:15;;;;;;;1.70;1.60;;;;;;;-0.62;100.00;100326.00;6201400;22;20007;-94
2022/12/21 05:56:41;;;;;;;4.30;3.88;;;;;;;-0.73;100.00;100312.16;6201401;22;20024;-95
2022/12/21 05:59:06;;;;;;;4.38;4.00;;;;;;;-0.70;100.00;100297.81;6201053;22;20468;-96
2022/12/21 06:01:32;;;;;;;3.63;3.35;;;;;;;-0.70;100.00;100300.53;6201807;22;20028;-95
2022/12/21 06:03:58;;;;;;;4.45;3.28;;;;;;;-0.72;100.00;100296.56;6201050;22;20007;-96
2022/12/21 06:06:24;;;;;;;2.25;1.42;;;;;;;-0.71;100.00;100289.97;6203881;22;19996;-95
2022/12/21 06:08:49;;;;;;;2.17;2.08;;;;;;;-0.69;100.00;100304.06;6201173;22;20026;-95
2022/12/21 06:11:18;;;;;;;5.20;2.70;;;;;;;-0.64;100.00;100311.94;6202456;22;19999;-95
2022/12/21 06:13:49;;;;;;;8.38;3.78;;;;;;;-0.63;100.00;100318.97;6206541;22;20022;-96
2022/12/21 06:16:23;;;;;;;3.28;2.97;;;;;;;-0.65;100.00;100313.88;6213387;22;20787;-95
2022/12/21 06:18:51;;;;;;;1.67;1.58;;;;;;;-0.64;100.00;100309.19;6231288;22;20019;-95
2022/12/21 06:21:19;;;;;;;3.33;3.08;;;;;;;-0.57;100.00;100325.72;6205852;22;20011;-95
2022/12/21 06:23:45;;;;;;;3.40;3.17;;;;;;;-0.64;100.00;100315.44;6206122;22;20004;-95
2022/12/21 06:26:18;;;;;;;4.20;3.92;;;;;;;-0.53;100.00;100316.50;6240175;22;20094;-96
2022/12/21 06:28:52;;;;;;;1.65;1.55;;;;;;;-0.40;100.00;100341.66;6212948;22;20043;-90
2022/12/21 06:31:18;;;;;;;;;;;;;;;-0.30;100.00;100351.22;6274007;22;20612;-89
2022/12/21 06:33:44;;;;;;;1.73;1.65;;;;;;;-0.42;100.00;100343.97;6244567;22;20017;-89
2022/12/21 06:36:10;;;;;;;6.03;4.97;;;;;;;-0.36;100.00;100358.88;6218042;22;20022;-91
2022/12/21 06:38:36;;;;;;;2.75;2.60;;;;;;;-0.35;100.00;100360.47;6246270;22;20050;-91
2022/12/21 06:41:08;;;;;;;2.25;2.05;;;;;;;-0.43;100.00;100342.38;6220724;22;20069;-90
2022/12/21 06:43:36;;;;;;;2.05;1.48;;;;;;;-0.37;100.00;100337.47;6244726;22;20022;-90
2022/12/21 06:46:10;;;;;;;2.25;1.98;;;;;;;-0.45;100.00;100320.16;6247100;22;20378;-92
2022/12/21 06:48:37;;;;;;;16.10;3.10;;;;;;;-0.56;100.00;100313.66;6201453;22;20069;-93
2022/12/21 06:51:11;;;;;;;5.65;5.25;;;;;;;-0.51;100.00;100319.63;6222405;22;20054;-91
2022/12/21 06:53:38;;;;;;;2.08;1.92;;;;;;;-0.28;100.00;100360.63;6216814;22;20345;-91
2022/12/21 06:56:08;;;;;;;3.33;2.95;;;;;;;-0.48;100.00;100332.53;6217287;22;20015;-91
2022/12/21 06:58:34;;;;;;;5.32;4.07;;;;;;;-0.51;100.00;100336.00;6242492;22;20013;-91
2022/12/21 07:01:08;;;;;;;4.43;4.13;;;;;;;-0.42;100.00;100338.53;6241318;22;20091;-92
2022/12/21 07:03:34;;;;;;;1.27;1.27;;;;;;;-0.46;100.00;100340.38;6242998;22;20488;-91
2022/12/21 07:06:00;;;;;;;5.70;4.93;;;;;;;-0.48;100.00;100334.47;6217388;22;20004;-93
2022/12/21 08:54:37;;;;;;;3.88;3.53;;;;;;;0.20;100.00;100386.59;6302413;22;20023;-89
2022/12/21 08:57:03;;;;;;;5.68;3.25;;;;;;;0.31;100.00;100412.16;6223014;22;20008;-89
2022/12/21 08:59:29;;;;;;;2.97;2.75;;;;;;;0.25;100.00;100382.75;6225780;22;20022;-90
2022/12/21 09:01:54;;;;;;;3.53;3.08;;;;;;;0.29;100.00;100400.00;6224167;22;20770;-94
2022/12/21 09:04:20;;;;;;;11.50;2.75;;;;;;;0.28;100.00;100395.72;6228559;22;20011;-94
2022/12/21 09:06:46;;;;;;;7.85;4.65;;;;;;;0.28;100.00;100385.59;6226498;22;20011;-92
2022/12/21 09:09:11;;;;;;;8.35;4.78;;;;;;;0.17;100.00;100375.59;6227285;22;20015;-92
2022/12/21 09:11:37;;;;;;;5.13;3.33;;;;;;;0.28;100.00;100382.06;6225791;22;20506;-94
2022/12/21 09:14:03;;;;;;;1.42;1.33;;;;;;;0.17;100.00;100372.84;6225814;22;20034;-94
2022/12/21 09:16:29;;;;;;;7.03;3.13;;;;;;;0.25;100.00;100374.59;6252320;22;20054;-94
2022/12/21 09:18:54;;;;;;;6.30;5.72;;;;;;;0.32;100.00;100388.38;6225726;22;20579;-91
2022/12/21 09:21:21;;;;;;;4.13;3.85;;;;;;;0.27;100.00;100381.28;6226594;22;20008;-93
2022/12/21 09:23:48;;;;;;;3.38;3.05;;;;;;;0.31;100.00;100376.69;6250084;22;20091;-90
2022/12/21 09:26:14;;;;;;;4.85;3.75;;;;;;;0.33;100.00;100381.75;6276122;22;20064;-89
2022/12/21 09:28:40;;;;;;;9.48;3.50;;;;;;;0.28;100.00;100360.25;6248814;22;20011;-89
2022/12/21 09:31:18;;;;;;;5.55;3.92;;;;;;;0.36;100.00;100376.41;6225561;22;20907;-89
2022/12/21 09:33:44;;;;;;;23.08;3.80;;;;;;;0.31;100.00;100371.22;6224178;22;20015;-89
2022/12/21 09:36:11;;;;;;;8.55;4.40;;;;;;;0.22;100.00;100356.22;6225801;22;20397;-90
2022/12/21 09:38:40;;;;;;;5.13;3.85;;;;;;;0.17;100.00;100331.94;6222237;22;20026;-90
2022/12/21 09:41:05;;;;;;;5.65;4.53;;;;;;;0.33;100.00;100363.44;6225567;22;20444;-90
2022/12/21 09:43:43;;;;;;;4.07;3.33;;;;;;;0.39;100.00;100363.97;6260103;22;20015;-92
2022/12/21 09:46:13;;;;;;;1.17;1.10;;;;;;;0.46;100.00;100356.69;6222723;22;20055;-93
2022/12/21 09:48:46;;;;;;;4.00;3.70;;;;;;;0.37;100.00;100361.59;6249082;22;20015;-91
2022/12/21 09:51:17;;;;;;;3.38;2.92;;;;;;;0.31;100.00;100340.41;6249282;22;20027;-92
2022/12/21 09:53:50;;;;;;;1.85;1.75;;;;;;;0.54;100.00;100363.06;6272967;22;20053;-95
2022/12/21 09:56:17;;;;;;;;;;;;;;;0.61;100.00;100346.06;6262545;22;20016;-95
2022/12/21 09:58:45;;;;;;;1.70;1.60;;;;;;;0.63;100.00;100347.25;6234727;22;19911;-93
2022/12/21 10:01:17;;;;;;;4.47;4.18;;;;;;;0.74;100.00;100342.78;6228920;22;20011;-90
2022/12/21 10:04:03;;;;;;;5.15;2.75;;;;;;;0.82;100.00;100339.00;6269097;22;20102;-88
2022/12/21 10:06:50;;;;;;;4.68;3.85;;;;;;;0.86;100.00;100336.34;6167531;22;20095;-88
2022/12/21 10:09:34;;;;;;;8.65;1.52;;;;;;;0.77;100.00;100328.38;6243935;22;20168;-90
2022/12/21 10:12:42;;;;;;;5.50;3.63;;;;;;;0.81;100.00;100323.78;6241298;22;20044;-88
2022/12/21 10:15:20;;;;;;;4.20;3.05;;;;;;;0.84;100.00;100328.53;6215817;22;20031;-90
2022/12/21 10:18:09;;;;;;;4.85;4.22;;;;;;;0.88;100.00;100332.09;6244397;22;20057;-93
2022/12/21 10:20:59;;;;;;;2.13;2.03;;;;;;;0.71;100.00;100312.69;6244197;22;20039;-90
2022/12/21 10:23:28;;;;;;;3.30;2.88;;;;;;;0.90;100.00;100332.50;6242925;22;20453;-90
2022/12/21 10:25:59;;;;;;;6.03;4.97;;;;;;;0.82;100.00;100314.44;6192720;22;20019;-89
2022/12/21 10:29:01;;;;;;;2.83;2.63;;;;;;;0.90;100.00;100337.97;6214173;22;20019;-90
2022/12/21 10:31:42;;;;;;;4.38;3.85;;;;;;;0.86;100.00;100311.75;6194072;22;20090;-89
2022/12/21 10:34:23;;;;;;;7.90;4.65;;;;;;;0.98;100.00;100321.69;6244317;22;20016;-90
2022/12/21 10:36:56;;;;;;;3.88;3.30;;;;;;;1.00;100.00;100319.41;6220983;22;20008;-94
2022/12/21 10:39:22;;;;;;;4.47;3.92;;;;;;;1.03;100.00;100313.22;6221102;22;20073;-90
2022/12/21 10:42:04;;;;;;;1.58;1.52;;;;;;;1.03;100.00;100319.47;6218152;22;20449;-89
2022/12/21 10:44:29;;;;;;;5.80;5.40;;;;;;;0.94;100.00;100306.06;6244896;22;20016;-91
2022/12/21 10:46:55;;;;;;;3.08;2.88;;;;;;;0.85;100.00;100291.84;6269726;22;20076;-89
2022/12/21 10:49:27;;;;;;;7.18;5.32;;;;;;;1.02;100.00;100315.16;6219235;22;20011;-91
2022/12/21 10:51:53;;;;;;;2.47;2.28;;;;;;;1.02;100.00;100308.88;6243924;22;20014;-89
2022/12/21 10:54:32;;;;;;;14.00;4.30;;;;;;;1.00;100.00;100297.56;6237908;23;20111;-90
2022/12/21 10:56:59;;;;;;;2.65;2.47;;;;;;;0.94;100.00;100276.00;6239441;22;20012;-89
2022/12/21 10:59:31;;;;;;;4.50;4.20;;;;;;;0.92;100.00;100283.78;6240224;22;20024;-93
2022/12/21 11:01:57;;;;;;;5.55;4.55;;;;;;;0.99;100.00;100298.69;6190706;23;20020;-95
2022/12/21 11:04:23;;;;;;;4.03;3.72;;;;;;;1.03;100.00;100291.34;6217006;22;20437;-94
2022/12/21 11:06:55;;;;;;;4.18;3.85;;;;;;;1.00;100.00;100286.63;6267248;22;20032;-93
2022/12/21 11:09:35;;;;;;;13.82;5.28;;;;;;;1.06;100.00;100285.94;6216945;23;20094;-93
2022/12/21 11:28:24;;;;;;;5.95;3.08;;;;;;;0.99;100.00;100261.25;6278817;22;20506;-86
2022/12/21 11:31:04;;;;;;;16.05;5.43;;;;;;;1.05;100.00;100278.13;6274749;22;20074;-88
2022/12/21 11:33:30;;;;;;;2.88;2.70;;;;;;;0.99;100.00;100268.66;6249825;22;20011;-88
2022/12/21 11:36:15;;;;;;;6.03;5.55;;;;;;;0.98;100.00;100288.94;6248519;22;20031;-89
2022/12/21 11:38:42;;;;;;;1.92;1.83;;;;;;;0.90;100.00;100274.38;6246886;22;20437;-93
2022/12/21 11:41:28;;;;;;;6.63;5.90;;;;;;;0.83;100.00;100283.25;6221022;22;20007;-94
2022/12/21 11:43:54;;;;;;;5.07;4.57;;;;;;;0.65;100.00;100268.50;6191229;22;20016;-90
2022/12/21 11:46:35;;;;;;;8.63;7.30;;;;;;;0.71;100.00;100264.31;6193945;22;20069;-89
2022/12/21 11:49:03;;;;;;;2.08;1.98;;;;;;;0.70;100.00;100262.75;6193477;22;20023;-91
2022/12/21 11:51:52;;;;;;;4.22;3.92;;;;;;;0.69;100.00;100261.16;6218924;22;20016;-92
2022/12/21 14:28:03;;;;;;;1.48;1.38;;;;;;;0.71;100.00;100231.56;6302999;22;20081;-91
2022/12/21 14:30:30;;;;;;;7.85;3.28;;;;;;;0.69;100.00;100239.31;6250754;22;20019;-92
2022/12/21 14:32:59;;;;;;;7.03;4.68;;;;;;;0.57;100.00;100225.84;6276501;22;20078;-91
2022/12/21 14:35:31;;;;;;;3.85;3.53;;;;;;;0.52;100.00;100233.59;6226115;22;20402;-93
2022/12/21 14:38:18;;;;;;;6.57;6.00;;;;;;;0.53;100.00;100252.31;6278572;22;20011;-91
2022/12/21 14:41:07;;;;;;;2.22;2.03;;;;;;;0.55;100.00;100244.56;6303693;22;20014;-91
2022/12/21 14:44:11;;;;;;;2.72;2.15;;;;;;;0.58;100.00;100249.28;6253169;22;20106;-91
2022/12/21 14:46:39;;;;;;;1.80;1.70;;;;;;;0.56;100.00;100248.88;6245187;22;20070;-91
2022/12/21 14:49:09;;;;;;;21.30;2.30;;;;;;;0.61;100.00;100254.00;6195887;22;20026;-92
2022/12/21 14:51:59;;;;;;;2.60;2.45;;;;;;;0.70;100.00;100248.28;6247125;22;20039;-93
2022/12/21 14:54:38;;;;;;;1.95;1.45;;;;;;;0.67;100.00;100252.56;6246422;22;20015;-91
2022/12/21 14:57:10;;;;;;;2.65;2.42;;;;;;;0.64;100.00;100253.28;6195958;22;20487;-91
2022/12/21 14:59:39;;;;;;;10.80;4.18;;;;;;;0.57;100.00;100250.44;6245976;22;20022;-90
2022/12/21 15:02:24;;;;;;;7.40;3.03;;;;;;;0.57;100.00;100252.41;6244965;22;20008;-90
2022/12/21 15:04:55;;;;;;;5.72;2.40;;;;;;;0.52;100.00;100260.88;6196370;22;20329;-91
2022/12/21 15:07:24;;;;;;;10.10;3.35;;;;;;;0.56;100.00;100243.41;6226592;22;20016;-91
2022/12/21 15:09:54;;;;;;;2.15;1.65;;;;;;;0.59;100.00;100245.41;6248072;22;20046;-93
2022/12/21 15:12:35;;;;;;;0.98;0.90;;;;;;;0.46;100.00;100246.72;6247443;22;20394;-94
2022/12/21 15:15:01;;;;;;;2.90;2.67;;;;;;;0.43;100.00;100244.75;6249875;22;20012;-95
2022/12/21 15:17:31;;;;;;;2.45;1.88;;;;;;;0.46;100.00;100257.66;6249985;22;20015;-94
2022/12/21 15:19:58;;;;;;;2.75;2.53;;;;;;;0.50;100.00;100242.13;6223716;22;20154;-94
2022/12/21 15:22:31;;;;;;;3.97;1.98;;;;;;;0.45;100.00;100256.06;6249932;22;20012;-94
2022/12/21 15:25:00;;;;;;;2.72;2.58;;;;;;;0.35;100.00;100227.47;6255156;22;20011;-94
2022/12/21 15:27:31;;;;;;;3.58;3.28;;;;;;;0.40;100.00;100250.94;6229459;22;20008;-95
2022/12/21 15:30:04;;;;;;;5.05;3.92;;;;;;;0.20;100.00;100233.81;6261705;22;20012;-93
2022/12/21 15:32:34;;;;;;;1.45;1.35;;;;;;;0.05;100.00;100225.72;6254827;22;20031;-92
2022/12/21 15:35:06;;;;;;;3.25;2.35;;;;;;;0.04;100.00;100224.97;6227635;22;20019;-94
2022/12/21 15:37:32;;;;;;;9.60;4.13;;;;;;;0.03;100.00;100223.38;6232052;22;20103;-94
2022/12/21 15:40:11;;;;;;;2.42;2.22;;;;;;;0.07;100.00;100239.81;6236123;22;20425;-94
2022/12/21 15:42:43;;;;;;;6.03;1.58;;;;;;;0.08;100.00;100236.72;6231253;22;20023;-92
2022/12/21 15:45:24;;;;;;;0.43;0.43;;;;;;;0.10;100.00;100231.69;6229336;22;20012;-92
2022/12/21 15:47:55;;;;;;;2.20;2.00;;;;;;;0.31;100.00;100244.91;6278542;22;20004;-94
2022/12/21 15:50:39;;;;;;;1.60;1.50;;;;;;;-0.08;100.00;100217.69;6245565;22;20003;-94
2022/12/21 15:53:05;;;;;;;;;;;;;;;0.13;100.00;100250.03;6222694;22;20024;-94
2022/12/21 15:55:36;;;;;;;7.53;4.25;;;;;;;-0.03;100.00;100241.97;6221537;22;19895;-94
2022/12/21 15:58:14;;;;;;;2.65;2.50;;;;;;;-0.25;100.00;100220.91;6248903;22;20392;-95
2022/12/21 16:00:41;;;;;;;4.25;2.58;;;;;;;-0.28;100.00;100229.00;6224302;22;20016;-95
2022/12/21 16:08:32;;;;;;;1.85;1.75;;;;;;;0.05;100.00;100264.69;6301282;22;20104;-94
2022/12/21 16:10:57;;;;;;;1.45;1.35;;;;;;;-0.05;100.00;100232.56;6251675;22;20011;-94
2022/12/21 16:13:26;;;;;;;2.80;2.53;;;;;;;-0.10;100.00;100227.41;6229124;22;20472;-94
2022/12/21 16:15:53;;;;;;;2.72;2.53;;;;;;;0.16;100.00;100270.38;6228125;22;20431;-93
2022/12/21 16:18:21;;;;;;;1.85;1.75;;;;;;;-0.02;100.00;100246.28;6228991;22;20086;-93
2022/12/21 16:20:55;;;;;;;1.45;1.45;;;;;;;0.20;100.00;100282.94;6229401;22;20007;-94
2022/12/21 16:23:33;;;;;;;2.55;1.90;;;;;;;0.19;100.00;100286.81;6252378;22;20023;-94
2022/12/21 16:25:59;;;;;;;8.15;4.68;;;;;;;0.10;100.00;100279.97;6228326;22;20022;-93
2022/12/21 16:28:28;;;;;;;2.40;2.22;;;;;;;0.13;100.00;100280.03;6228465;22;20010;-96
2022/12/21 16:31:01;;;;;;;8.25;2.30;;;;;;;-0.04;100.00;100240.38;6229777;22;20015;-94
2022/12/21 16:33:33;;;;;;;3.60;2.55;;;;;;;0.14;100.00;100261.75;6255791;22;20015;-93